Time;durP1;ratioP1;P1;durP2;ratioP2;P2;SDS_P1;SDS_P2;PMS_P1;PMS_P2;Temp;Humidity;BMP_temperature;BMP_pressure;BME280_temperature;BME280_humidity;BME280_pressure;Samples;Min_cycle;Max_cycle;Signal;HPM_P1;HPM_P2
2022/05/14 00:00:00;;;;;;;;;;;;;;;20.89;56.39;99116.91;2066492;28;20477;-82
2022/05/14 00:01:20;;;;;;;;;;;;;;;20.87;56.27;99110.09;2066274;28;19932;-81
2022/05/14 00:02:21;;;;;;;;;;;;;;;20.87;56.29;99115.50;2066032;28;19953;-82
2022/05/14 00:03:26;;;;;;;;;;;;;;;20.88;56.25;99106.38;2064320;28;19976;-82
2022/05/14 00:04:40;;;;;;;;;;;;;;;20.88;56.22;99106.38;2064096;28;19936;-81
2022/05/14 00:05:41;;;;;;;;;;;;;;;20.86;56.18;99103.84;2065535;28;20283;-82
2022/05/14 00:06:55;;;;;;;;;;;;;;;20.87;56.41;99104.72;2068216;28;19951;-82
2022/05/14 00:07:56;;;;;;;;;;;;;;;20.86;56.43;99103.84;2063813;28;20822;-82
2022/05/14 00:09:05;;;;;;;;;;;;;;;20.87;56.48;99104.72;2066428;28;19956;-81
2022/05/14 00:10:12;;;;;;;;;;;;;;;20.87;56.34;99102.03;2064100;28;19979;-82
2022/05/14 00:13:55;;;;;;;;;;;;;;;20.86;56.38;99092.25;2064352;28;19926;-82
2022/05/14 00:15:01;;;;;;;;;;;;;;;20.86;56.43;99092.25;2067419;28;19925;-82
2022/05/14 00:16:04;;;;;;;;;;;;;;;20.83;56.52;99085.41;2064213;28;19970;-81
2022/05/14 00:17:12;;;;;;;;;;;;;;;20.85;56.42;99090.59;2066475;28;20457;-83
2022/05/14 00:18:17;;;;;;;;;;;;;;;20.84;56.43;99091.63;2063865;28;20000;-81
2022/05/14 00:19:20;;;;;;;;;;;;;;;20.85;56.58;99085.22;2062217;28;19957;-82
2022/05/14 00:20:29;;;;;;;;;;;;;;;20.85;56.50;99086.03;2065929;28;19926;-83
2022/05/14 00:21:30;;;;;;;;;;;;;;;20.86;56.41;99089.56;2054970;28;19933;-83
2022/05/14 00:22:32;;;;;;;;;;;;;;;20.83;56.55;99087.28;2062028;28;19936;-83
2022/05/14 00:23:33;;;;;;;;;;;;;;;20.84;56.57;99087.09;2062230;28;19926;-82
2022/05/14 00:24:36;;;;;;;;;;;;;;;20.84;56.57;99087.09;2064605;28;20351;-82
2022/05/14 00:25:38;;;;;;;;;;;;;;;20.85;56.58;99090.59;2053270;28;19938;-81
2022/05/14 00:26:51;;;;;;;;;;;;;;;20.86;56.45;99094.94;2075264;28;20038;-82
2022/05/14 00:29:20;;;;;;;;;;;;;;;20.84;56.70;99088.91;2038378;28;20578;-82
2022/05/14 00:30:56;;;;;;;;;;;;;;;20.85;56.45;99082.50;2054590;28;19987;-82
2022/05/14 00:32:01;;;;;;;;;;;;;;;20.85;56.54;99085.22;2067985;28;19925;-82
2022/05/14 00:33:01;;;;;;;;;;;;;;;20.86;56.68;99092.25;2065191;28;19953;-82
2022/05/14 00:34:11;;;;;;;;;;;;;;;20.85;56.58;99082.50;2069005;28;19929;-82
2022/05/14 00:35:32;;;;;;;;;;;;;;;20.85;56.44;99080.63;2058212;28;19976;-82
2022/05/14 00:36:53;;;;;;;;;;;;;;;20.87;56.51;99083.16;2069530;28;20005;-83
2022/05/14 00:38:08;;;;;;;;;;;;;;;20.84;56.59;99083.53;2065596;28;19980;-83
2022/05/14 00:39:09;;;;;;;;;;;;;;;20.83;56.47;99081.88;2068574;23;19929;-50
2022/05/14 00:40:12;;;;;;;;;;;;;;;20.82;56.58;99072.97;2077054;28;19933;-50
2022/05/14 00:41:16;;;;;;;;;;;;;;;20.84;56.47;99078.13;2073618;28;19979;-54
2022/05/14 00:42:16;;;;;;;;;;;;;;;20.83;56.43;99071.94;2077425;28;19929;-53
2022/05/14 00:43:18;;;;;;;;;;;;;;;20.84;56.43;99072.75;2076246;28;20299;-52
2022/05/14 00:44:18;;;;;;;;;;;;;;;20.84;56.59;99078.13;2074580;28;19933;-48
2022/05/14 00:45:21;;;;;;;;;;;;;;;20.84;56.71;99079.00;2076571;28;19929;-49
2022/05/14 00:46:23;;;;;;;;;;;;;;;20.84;56.53;99072.75;2074886;28;20434;-47
2022/05/14 00:47:25;;;;;;;;;;;;;;;20.86;56.40;99076.91;2076921;28;20437;-49
2022/05/14 00:48:30;;;;;;;;;;;;;;;20.85;56.22;99074.44;2075073;28;20616;-46
2022/05/14 00:49:33;;;;;;;;;;;;;;;20.86;56.71;99076.06;2075814;28;19929;-48
2022/05/14 00:50:37;;;;;;;;;;;;;;;20.83;56.50;99071.09;2076315;28;19996;-46
2022/05/14 00:51:41;;;;;;;;;;;;;;;20.82;56.47;99064.88;2074692;28;19929;-49
2022/05/14 00:52:42;;;;;;;;;;;;;;;20.84;56.42;99080.84;2075603;28;19940;-49
2022/05/14 00:53:46;;;;;;;;;;;;;;;20.84;56.34;99073.59;2077651;28;19999;-49
2022/05/14 00:54:48;;;;;;;;;;;;;;;20.83;56.38;99087.28;2075026;28;20341;-49
2022/05/14 00:55:52;;;;;;;;;;;;;;;20.83;56.59;99082.72;2074958;28;19926;-51
2022/05/14 00:56:56;;;;;;;;;;;;;;;20.83;56.67;99077.31;2074916;28;19934;-50
2022/05/14 00:57:58;;;;;;;;;;;;;;;20.83;56.46;99071.94;2077529;28;19929;-49
2022/05/14 00:59:01;;;;;;;;;;;;;;;20.83;56.75;99071.94;2074466;28;19932;-49
2022/05/14 01:00:05;;;;;;;;;;;;;;;20.84;56.51;99083.53;2075035;28;19932;-50
2022/05/14 01:01:05;;;;;;;;;;;;;;;20.81;56.47;99074.03;2073947;28;22451;-52
2022/05/14 01:02:07;;;;;;;;;;;;;;;20.82;56.76;99069.44;2072170;28;19933;-50
2022/05/14 01:03:08;;;;;;;;;;;;;;;20.80;56.54;99077.72;2076069;28;19934;-47
2022/05/14 01:04:10;;;;;;;;;;;;;;;20.82;56.53;99080.25;2076666;28;19932;-56
2022/05/14 01:05:12;;;;;;;;;;;;;;;20.81;56.70;99075.84;2076227;28;19936;-48
2022/05/14 01:06:15;;;;;;;;;;;;;;;20.82;56.80;99074.84;2076194;28;20087;-50
2022/05/14 01:07:17;;;;;;;;;;;;;;;20.81;56.65;99073.16;2077607;28;19929;-49
2022/05/14 01:08:18;;;;;;;;;;;;;;;20.80;56.80;99076.91;2076073;28;19959;-53
2022/05/14 01:09:19;;;;;;;;;;;;;;;20.80;56.61;99076.91;2074671;28;19929;-47
2022/05/14 01:10:23;;;;;;;;;;;;;;;20.79;56.81;99077.97;2072855;28;19963;-47
2022/05/14 01:11:23;;;;;;;;;;;;;;;20.80;56.80;99077.72;2075873;28;19972;-52
2022/05/14 01:12:28;;;;;;;;;;;;;;;20.80;56.83;99076.91;2075656;28;19925;-47
2022/05/14 01:13:29;;;;;;;;;;;;;;;20.80;56.77;99076.91;2076988;28;20519;-49
2022/05/14 01:14:30;;;;;;;;;;;;;;;20.80;56.75;99068.81;2077107;28;19936;-49
2022/05/14 01:15:43;;;;;;;;;;;;;;;20.81;56.70;99074.03;2075598;28;20326;-47
2022/05/14 01:16:45;;;;;;;;;;;;;;;20.80;56.72;99074.22;2075903;28;19929;-49
2022/05/14 01:17:46;;;;;;;;;;;;;;;20.79;56.85;99064.47;2074896;28;19932;-47
2022/05/14 01:18:48;;;;;;;;;;;;;;;20.80;56.80;99069.66;2073355;28;19975;-47
2022/05/14 01:19:49;;;;;;;;;;;;;;;20.82;56.54;99072.16;2073758;28;20437;-47
2022/05/14 01:20:52;;;;;;;;;;;;;;;20.82;56.80;99062.19;2074198;28;19929;-53
2022/05/14 01:21:59;;;;;;;;;;;;;;;20.80;56.76;99066.94;2076283;28;19973;-49
2022/05/14 01:23:04;;;;;;;;;;;;;;;20.82;56.86;99066.75;2073129;28;19929;-57
2022/05/14 01:26:55;;;;;;;;;;;;;;;20.79;56.85;99067.19;2075583;28;19936;-47
2022/05/14 01:27:56;;;;;;;;;;;;;;;20.78;56.67;99062.81;2075425;28;19925;-50
2022/05/14 01:28:58;;;;;;;;;;;;;;;20.80;56.72;99058.03;2070885;28;19935;-51
2022/05/14 01:30:00;;;;;;;;;;;;;;;20.81;56.63;99062.38;2070596;28;20059;-51
2022/05/14 01:31:01;;;;;;;;;;;;;;;20.80;56.56;99055.34;2076199;28;20020;-48
2022/05/14 01:32:03;;;;;;;;;;;;;;;20.80;56.63;99056.16;2072535;28;20013;-51
2022/05/14 01:33:07;;;;;;;;;;;;;;;20.81;56.79;99059.69;2075067;28;20303;-52
2022/05/14 01:34:09;;;;;;;;;;;;;;;20.82;56.66;99059.50;2071966;28;20438;-49
2022/05/14 01:35:09;;;;;;;;;;;;;;;20.81;56.78;99054.28;2075092;28;19957;-54
2022/05/14 01:36:11;;;;;;;;;;;;;;;20.81;56.94;99055.16;2074346;28;19932;-46
2022/05/14 01:37:12;;;;;;;;;;;;;;;20.79;56.75;99054.53;2076299;28;19932;-49
2022/05/14 01:38:14;;;;;;;;;;;;;;;20.79;56.58;99051.81;2071909;28;19929;-49
2022/05/14 01:39:14;;;;;;;;;;;;;;;20.80;56.93;99056.16;2074890;28;20342;-49
2022/05/14 01:40:16;;;;;;;;;;;;;;;20.80;56.88;99047.25;2069367;28;19929;-54
2022/05/14 01:41:18;;;;;;;;;;;;;;;20.80;56.90;99052.66;2070505;28;19973;-49
2022/05/14 01:42:21;;;;;;;;;;;;;;;20.80;56.48;99040.00;2074809;28;19956;-49
2022/05/14 01:43:23;;;;;;;;;;;;;;;20.79;56.67;99043.72;2075604;28;20100;-48
2022/05/14 01:44:23;;;;;;;;;;;;;;;20.79;56.95;99038.34;2073096;28;19925;-47
2022/05/14 01:45:25;;;;;;;;;;;;;;;20.78;56.70;99046.63;2075740;28;20625;-46
2022/05/14 01:46:26;;;;;;;;;;;;;;;20.78;56.90;99041.22;2074959;28;19925;-47
2022/05/14 01:47:28;;;;;;;;;;;;;;;20.77;56.64;99039.59;2071552;28;19983;-50
2022/05/14 01:48:28;;;;;;;;;;;;;;;20.78;56.75;99042.06;2073458;28;20842;-51
2022/05/14 01:49:30;;;;;;;;;;;;;;;20.79;56.96;99046.44;2072197;28;19925;-51
2022/05/14 01:50:31;;;;;;;;;;;;;;;20.79;56.98;99049.13;2070457;28;19992;-48
2022/05/14 01:51:33;;;;;;;;;;;;;;;20.78;56.72;99041.22;2073370;28;20065;-46
2022/05/14 01:52:34;;;;;;;;;;;;;;;20.79;56.72;99042.91;2073271;28;19929;-48
2022/05/14 01:53:36;;;;;;;;;;;;;;;20.80;56.61;99044.56;2072011;28;19929;-51
2022/05/14 01:54:36;;;;;;;;;;;;;;;20.79;56.91;99043.72;2074489;28;19936;-48
2022/05/14 01:55:38;;;;;;;;;;;;;;;20.81;56.61;99038.97;2075515;28;19932;-50
2022/05/14 01:56:39;;;;;;;;;;;;;;;20.80;56.67;99039.16;2073548;28;19937;-52
2022/05/14 01:57:42;;;;;;;;;;;;;;;20.79;56.87;99049.13;2074066;28;19925;-51
2022/05/14 01:58:42;;;;;;;;;;;;;;;20.80;56.93;99044.56;2070957;28;19955;-55
2022/05/14 01:59:44;;;;;;;;;;;;;;;20.79;56.59;99037.53;2075898;28;19926;-51
2022/05/14 02:00:44;;;;;;;;;;;;;;;20.79;56.68;99042.91;2075945;28;19929;-52
2022/05/14 02:01:46;;;;;;;;;;;;;;;20.79;56.63;99041.03;2075603;28;19963;-52
2022/05/14 02:02:47;;;;;;;;;;;;;;;20.79;56.95;99035.66;2074949;28;21253;-48
2022/05/14 02:03:51;;;;;;;;;;;;;;;20.79;56.75;99037.53;2077407;28;19929;-49
2022/05/14 02:04:52;;;;;;;;;;;;;;;20.78;56.85;99033.16;2074369;28;19944;-53
2022/05/14 02:05:54;;;;;;;;;;;;;;;20.77;56.72;99040.41;2077079;28;20031;-48
2022/05/14 02:06:55;;;;;;;;;;;;;;;20.78;56.84;99038.53;2073137;28;19929;-53
2022/05/14 02:07:56;;;;;;;;;;;;;;;20.77;56.77;99036.88;2074742;28;19929;-52
2022/05/14 02:08:58;;;;;;;;;;;;;;;20.78;56.76;99036.66;2073738;28;20053;-56
2022/05/14 02:09:58;;;;;;;;;;;;;;;20.77;56.72;99035.03;2076471;28;19925;-49
2022/05/14 02:11:00;;;;;;;;;;;;;;;20.75;57.06;99032.53;2074157;28;20060;-50
2022/05/14 02:12:01;;;;;;;;;;;;;;;20.76;56.94;99038.75;2070068;28;19929;-50
2022/05/14 02:13:05;;;;;;;;;;;;;;;20.74;57.04;99038.97;2073131;28;19929;-48
2022/05/14 02:14:06;;;;;;;;;;;;;;;20.76;56.96;99033.38;2075236;28;20048;-46
2022/05/14 02:15:08;;;;;;;;;;;;;;;20.77;56.64;99034.19;2075208;28;20449;-48
2022/05/14 02:16:08;;;;;;;;;;;;;;;20.74;56.78;99028.16;2076599;28;19964;-44
2022/05/14 02:17:10;;;;;;;;;;;;;;;20.75;56.99;99029.84;2070581;28;20622;-51
2022/05/14 02:18:11;;;;;;;;;;;;;;;20.74;57.10;99032.75;2074614;28;19936;-53
2022/05/14 02:19:12;;;;;;;;;;;;;;;20.75;57.00;99032.53;2075024;28;20623;-56
2022/05/14 02:20:13;;;;;;;;;;;;;;;20.75;57.02;99037.94;2077345;28;19929;-54
2022/05/14 02:21:15;;;;;;;;;;;;;;;20.73;57.01;99028.41;2075127;28;19987;-49
2022/05/14 02:22:17;;;;;;;;;;;;;;;20.74;56.81;99030.03;2072324;28;19929;-51
2022/05/14 02:23:18;;;;;;;;;;;;;;;20.71;57.04;99033.16;2074748;28;19925;-52
2022/05/14 02:24:19;;;;;;;;;;;;;;;20.72;56.95;99032.13;2071891;28;19929;-46
2022/05/14 02:25:20;;;;;;;;;;;;;;;20.71;57.14;99030.47;2074756;28;19929;-52
2022/05/14 02:26:22;;;;;;;;;;;;;;;20.73;57.01;99033.78;2074286;28;19979;-50
2022/05/14 02:27:23;;;;;;;;;;;;;;;20.72;56.76;99032.94;2077720;28;19925;-48
2022/05/14 02:28:26;;;;;;;;;;;;;;;20.73;56.88;99025.69;2075702;28;19926;-48
2022/05/14 02:29:26;;;;;;;;;;;;;;;20.72;56.81;99026.72;2074540;28;19929;-52
2022/05/14 02:30:28;;;;;;;;;;;;;;;20.73;57.00;99023.00;2077973;28;19932;-48
2022/05/14 02:31:31;;;;;;;;;;;;;;;20.72;56.95;99027.53;2073274;28;21140;-51
2022/05/14 02:32:33;;;;;;;;;;;;;;;20.74;56.75;99027.34;2077844;28;20565;-54
2022/05/14 02:33:35;;;;;;;;;;;;;;;20.71;57.10;99020.50;2077319;28;20418;-48
2022/05/14 02:34:37;;;;;;;;;;;;;;;20.72;57.18;99026.72;2074340;28;20342;-49
2022/05/14 02:35:38;;;;;;;;;;;;;;;20.72;57.09;99022.16;2074250;28;19936;-50
2022/05/14 02:36:39;;;;;;;;;;;;;;;20.74;57.08;99025.47;2075074;28;20395;-52
2022/05/14 02:37:40;;;;;;;;;;;;;;;20.74;57.12;99019.25;2074641;28;19932;-49
2022/05/14 02:38:41;;;;;;;;;;;;;;;20.73;57.01;99021.13;2070401;28;19940;-47
2022/05/14 02:39:42;;;;;;;;;;;;;;;20.73;57.07;99026.53;2073770;28;20564;-48
2022/05/14 02:40:44;;;;;;;;;;;;;;;20.71;57.05;99028.59;2078462;28;19925;-47
2022/05/14 02:41:44;;;;;;;;;;;;;;;20.74;57.00;99024.66;2077874;28;19975;-46
2022/05/14 02:42:48;;;;;;;;;;;;;;;20.72;56.87;99024.84;2073989;28;20011;-53
2022/05/14 02:43:50;;;;;;;;;;;;;;;20.73;57.11;99023.84;2076642;28;20417;-49
2022/05/14 02:44:51;;;;;;;;;;;;;;;20.72;56.95;99021.31;2073608;28;20027;-50
2022/05/14 02:45:52;;;;;;;;;;;;;;;20.71;57.04;99025.06;2076575;28;19957;-51
2022/05/14 02:46:53;;;;;;;;;;;;;;;20.72;57.06;99022.16;2077414;28;19929;-46
2022/05/14 02:47:54;;;;;;;;;;;;;;;20.71;56.94;99025.06;2074485;28;19925;-55
2022/05/14 02:48:56;;;;;;;;;;;;;;;20.71;57.27;99020.50;2068884;28;19943;-46
2022/05/14 02:49:56;;;;;;;;;;;;;;;20.71;57.12;99025.91;2075037;28;19929;-47
2022/05/14 02:50:58;;;;;;;;;;;;;;;20.70;57.15;99018.84;2073862;28;20692;-51
2022/05/14 02:51:59;;;;;;;;;;;;;;;20.72;56.88;99018.63;2074559;28;19925;-50
2022/05/14 02:53:01;;;;;;;;;;;;;;;20.72;56.90;99022.16;2077271;28;19929;-47
2022/05/14 02:54:01;;;;;;;;;;;;;;;20.71;56.96;99020.50;2074270;28;19933;-51
2022/05/14 02:55:03;;;;;;;;;;;;;;;20.73;57.08;99023.00;2073391;28;19999;-49
2022/05/14 02:56:04;;;;;;;;;;;;;;;20.73;56.90;99023.00;2074346;28;19925;-49
2022/05/14 02:57:06;;;;;;;;;;;;;;;20.72;57.28;99024.03;2075251;28;19972;-49
2022/05/14 02:58:07;;;;;;;;;;;;;;;20.72;56.97;99018.63;2073985;28;19936;-47
2022/05/14 02:59:10;;;;;;;;;;;;;;;20.71;56.83;99028.59;2075955;28;20466;-49
2022/05/14 03:00:12;;;;;;;;;;;;;;;20.68;57.06;99020.94;2074591;28;19936;-49
2022/05/14 03:01:15;;;;;;;;;;;;;;;20.70;57.05;99032.34;2074966;28;20028;-49
2022/05/14 03:02:17;;;;;;;;;;;;;;;20.70;56.99;99029.63;2075201;28;20299;-46
2022/05/14 03:03:18;;;;;;;;;;;;;;;20.69;56.95;99030.66;2074675;28;19972;-47
2022/05/14 03:04:22;;;;;;;;;;;;;;;20.69;57.23;99027.97;2073174;28;20022;-51
2022/05/14 03:05:24;;;;;;;;;;;;;;;20.69;57.31;99027.97;2074006;28;20410;-52
2022/05/14 03:06:25;;;;;;;;;;;;;;;20.70;56.95;99029.63;2072820;28;19968;-50
2022/05/14 03:07:26;;;;;;;;;;;;;;;20.68;57.17;99023.63;2072342;28;19929;-48
2022/05/14 03:08:27;;;;;;;;;;;;;;;20.68;57.13;99025.50;2075794;28;20796;-49
2022/05/14 03:09:28;;;;;;;;;;;;;;;20.65;57.24;99026.72;2072478;28;19929;-46
2022/05/14 03:10:29;;;;;;;;;;;;;;;20.66;57.13;99023.00;2075969;28;19932;-47
2022/05/14 03:11:32;;;;;;;;;;;;;;;20.66;57.29;99027.56;2074158;28;19932;-51
2022/05/14 03:12:33;;;;;;;;;;;;;;;20.67;57.01;99030.06;2071673;28;19976;-50
2022/05/14 03:13:34;;;;;;;;;;;;;;;20.67;57.15;99027.38;2073826;28;19929;-49
2022/05/14 03:14:37;;;;;;;;;;;;;;;20.66;57.26;99028.38;2074028;28;20356;-50
2022/05/14 03:15:38;;;;;;;;;;;;;;;20.67;57.32;99029.22;2074594;28;20024;-50
2022/05/14 03:16:40;;;;;;;;;;;;;;;20.68;57.39;99036.28;2073576;28;19933;-48
2022/05/14 03:17:40;;;;;;;;;;;;;;;20.67;57.39;99032.75;2073239;28;20529;-47
2022/05/14 03:18:42;;;;;;;;;;;;;;;20.68;57.26;99034.41;2075657;28;19925;-51
2022/05/14 03:19:43;;;;;;;;;;;;;;;20.67;57.17;99032.75;2072463;28;19979;-49
2022/05/14 03:20:44;;;;;;;;;;;;;;;20.65;57.41;99037.50;2067764;28;20014;-52
2022/05/14 03:21:45;;;;;;;;;;;;;;;20.66;57.26;99033.78;2071642;28;19933;-48
2022/05/14 03:22:47;;;;;;;;;;;;;;;20.66;57.00;99038.34;2068675;28;20822;-53
2022/05/14 03:23:47;;;;;;;;;;;;;;;20.67;57.36;99042.69;2075813;28;19960;-49
2022/05/14 03:24:51;;;;;;;;;;;;;;;20.67;57.02;99037.28;2071838;28;19987;-47
2022/05/14 03:25:51;;;;;;;;;;;;;;;20.65;57.37;99037.50;2075084;28;19929;-50
2022/05/14 03:26:53;;;;;;;;;;;;;;;20.63;57.35;99039.56;2073848;28;20292;-46
2022/05/14 03:27:53;;;;;;;;;;;;;;;20.63;57.30;99036.88;2074749;28;19929;-48
2022/05/14 03:28:55;;;;;;;;;;;;;;;20.64;57.15;99040.41;2075157;28;20020;-50
2022/05/14 03:29:57;;;;;;;;;;;;;;;20.64;57.40;99043.09;2076442;28;19957;-49
2022/05/14 03:30:59;;;;;;;;;;;;;;;20.64;57.29;99032.31;2071896;28;20442;-52
2022/05/14 03:31:59;;;;;;;;;;;;;;;20.64;57.27;99041.22;2076517;28;19929;-49
2022/05/14 03:33:01;;;;;;;;;;;;;;;20.64;57.46;99035.84;2072920;28;19925;-50
2022/05/14 03:34:01;;;;;;;;;;;;;;;20.62;57.31;99037.94;2077676;28;19987;-48
2022/05/14 03:35:05;;;;;;;;;;;;;;;20.61;57.57;99043.50;2069388;28;19929;-49
2022/05/14 03:36:06;;;;;;;;;;;;;;;20.60;57.55;99044.56;2071746;28;19933;-47
2022/05/14 03:37:08;;;;;;;;;;;;;;;20.62;57.32;99045.19;2074688;28;19987;-51
2022/05/14 03:38:08;;;;;;;;;;;;;;;20.60;57.55;99042.69;2074903;28;19932;-46
2022/05/14 03:39:10;;;;;;;;;;;;;;;20.62;57.17;99047.88;2074834;28;19939;-48
2022/05/14 03:40:11;;;;;;;;;;;;;;;20.63;57.17;99050.34;2075578;28;19926;-49
2022/05/14 03:41:13;;;;;;;;;;;;;;;20.62;57.50;99042.50;2072218;28;20048;-47
2022/05/14 03:42:13;;;;;;;;;;;;;;;20.60;57.21;99045.38;2073683;28;20583;-48
2022/05/14 03:43:15;;;;;;;;;;;;;;;20.60;57.37;99048.09;2077308;28;19925;-48
2022/05/14 03:44:16;;;;;;;;;;;;;;;20.61;57.14;99049.72;2076373;28;19995;-54
2022/05/14 03:45:21;;;;;;;;;;;;;;;20.62;57.22;99046.00;2079025;28;19941;-49
2022/05/14 03:46:21;;;;;;;;;;;;;;;20.62;57.18;99046.00;2075878;28;20389;-49
2022/05/14 03:47:23;;;;;;;;;;;;;;;20.61;57.47;99043.50;2076144;28;19932;-49
2022/05/14 03:48:24;;;;;;;;;;;;;;;20.62;57.49;99046.00;2074795;28;19937;-52
2022/05/14 03:49:26;;;;;;;;;;;;;;;20.61;57.36;99047.03;2068100;28;19940;-49
2022/05/14 03:50:27;;;;;;;;;;;;;;;20.60;57.49;99040.00;2074709;28;20474;-50
2022/05/14 03:51:30;;;;;;;;;;;;;;;20.60;57.32;99045.38;2072936;28;19959;-49
2022/05/14 03:52:30;;;;;;;;;;;;;;;20.59;57.24;99046.44;2072125;28;19929;-52
2022/05/14 03:53:32;;;;;;;;;;;;;;;20.61;57.21;99044.34;2070623;28;19995;-47
2022/05/14 03:54:33;;;;;;;;;;;;;;;20.60;57.24;99044.56;2073888;28;19977;-50
2022/05/14 03:55:34;;;;;;;;;;;;;;;20.63;57.38;99050.34;2075664;28;20072;-51
2022/05/14 03:56:39;;;;;;;;;;;;;;;20.59;57.24;99041.03;2076337;28;19936;-53
2022/05/14 03:57:41;;;;;;;;;;;;;;;20.58;57.59;99043.94;2070052;28;19929;-47
2022/05/14 03:58:41;;;;;;;;;;;;;;;20.56;57.33;99049.53;2075599;28;19925;-48
2022/05/14 03:59:43;;;;;;;;;;;;;;;20.56;57.66;99046.00;2074849;28;20283;-53
2022/05/14 04:00:45;;;;;;;;;;;;;;;20.56;57.71;99046.84;2073971;28;20375;-51
2022/05/14 04:01:46;;;;;;;;;;;;;;;20.56;57.61;99044.16;2073619;28;19941;-51
2022/05/14 04:02:47;;;;;;;;;;;;;;;20.56;57.54;99046.84;2075047;28;19975;-50
2022/05/14 04:03:50;;;;;;;;;;;;;;;20.56;57.60;99049.53;2074200;28;19932;-52
2022/05/14 04:04:51;;;;;;;;;;;;;;;20.54;57.46;99046.22;2074473;28;20020;-51
2022/05/14 04:05:53;;;;;;;;;;;;;;;20.53;57.48;99044.53;2073463;28;20371;-47
2022/05/14 04:06:53;;;;;;;;;;;;;;;20.50;57.63;99040.38;2070040;28;19975;-50
2022/05/14 04:07:55;;;;;;;;;;;;;;;20.53;57.68;99047.22;2073733;28;20414;-51
2022/05/14 04:08:56;;;;;;;;;;;;;;;20.54;57.42;99046.22;2074879;28;20821;-47
2022/05/14 04:09:57;;;;;;;;;;;;;;;20.55;57.25;99045.16;2074553;28;19973;-50
2022/05/14 04:10:58;;;;;;;;;;;;;;;20.53;57.29;99041.84;2076378;28;19932;-48
2022/05/14 04:11:59;;;;;;;;;;;;;;;20.55;57.69;99047.03;2073354;28;19929;-48
2022/05/14 04:13:00;;;;;;;;;;;;;;;20.57;57.42;99050.38;2075188;28;19929;-47
2022/05/14 04:14:02;;;;;;;;;;;;;;;20.56;57.42;99052.25;2076881;28;20358;-54
2022/05/14 04:15:03;;;;;;;;;;;;;;;20.57;57.29;99056.59;2071995;28;19929;-48
2022/05/14 04:16:06;;;;;;;;;;;;;;;20.54;57.60;99057.00;2074924;28;20597;-53
2022/05/14 04:17:07;;;;;;;;;;;;;;;20.55;57.60;99058.66;2067361;28;20103;-49
2022/05/14 04:18:09;;;;;;;;;;;;;;;20.52;57.62;99054.47;2072335;28;19925;-46
2022/05/14 04:19:11;;;;;;;;;;;;;;;20.55;57.30;99058.66;2069406;28;19932;-52
2022/05/14 04:20:12;;;;;;;;;;;;;;;20.55;57.33;99058.66;2065248;28;19967;-53
2022/05/14 04:21:14;;;;;;;;;;;;;;;20.55;57.52;99061.34;2068467;28;19936;-51
2022/05/14 04:22:15;;;;;;;;;;;;;;;20.52;57.47;99053.63;2073261;28;19937;-47
2022/05/14 04:23:16;;;;;;;;;;;;;;;20.55;57.63;99057.81;2073589;28;19933;-49
2022/05/14 04:24:17;;;;;;;;;;;;;;;20.54;57.75;99057.00;2068903;28;19990;-49
2022/05/14 04:25:19;;;;;;;;;;;;;;;20.52;57.44;99059.84;2074749;28;19937;-49
2022/05/14 04:26:22;;;;;;;;;;;;;;;20.51;57.64;99057.38;2071994;28;20437;-48
2022/05/14 04:27:24;;;;;;;;;;;;;;;20.53;57.77;99058.00;2071989;28;20016;-46
2022/05/14 04:28:25;;;;;;;;;;;;;;;20.53;57.49;99060.69;2074765;28;19940;-48
2022/05/14 04:29:26;;;;;;;;;;;;;;;20.49;57.61;99059.44;2074485;28;20025;-49
2022/05/14 04:30:27;;;;;;;;;;;;;;;20.51;57.58;99062.78;2074845;28;19956;-48
2022/05/14 04:31:31;;;;;;;;;;;;;;;20.50;57.47;99061.09;2073147;28;20402;-46
2022/05/14 04:32:32;;;;;;;;;;;;;;;20.51;57.45;99065.47;2073762;28;20020;-52
2022/05/14 04:33:33;;;;;;;;;;;;;;;20.51;57.34;99060.91;2074471;28;19952;-50
2022/05/14 04:34:34;;;;;;;;;;;;;;;20.49;57.77;99054.06;2076594;28;19929;-47
2022/05/14 04:35:36;;;;;;;;;;;;;;;20.49;57.82;99062.97;2076751;28;19991;-53
2022/05/14 04:36:36;;;;;;;;;;;;;;;20.49;57.53;99056.75;2075542;28;19929;-51
2022/05/14 04:37:38;;;;;;;;;;;;;;;20.49;57.77;99057.56;2072782;28;20394;-49
2022/05/14 04:38:38;;;;;;;;;;;;;;;20.51;57.39;99057.38;2077229;28;19933;-46
2022/05/14 04:39:40;;;;;;;;;;;;;;;20.49;57.57;99060.25;2076635;28;19976;-51
2022/05/14 04:40:40;;;;;;;;;;;;;;;20.49;57.50;99054.88;2073960;28;20040;-48
2022/05/14 04:41:42;;;;;;;;;;;;;;;20.49;57.42;99060.25;2077071;28;20001;-48
2022/05/14 04:42:43;;;;;;;;;;;;;;;20.50;57.72;99066.47;2076576;28;20454;-49
2022/05/14 04:43:45;;;;;;;;;;;;;;;20.51;57.39;99060.06;2075275;28;19944;-47
2022/05/14 04:44:45;;;;;;;;;;;;;;;20.50;57.66;99061.09;2073033;28;19925;-49
2022/05/14 04:45:47;;;;;;;;;;;;;;;20.49;57.53;99067.53;2072831;28;20367;-49
2022/05/14 04:46:49;;;;;;;;;;;;;;;20.48;57.63;99058.63;2072564;28;19936;-55
2022/05/14 04:47:51;;;;;;;;;;;;;;;20.46;57.80;99062.56;2075653;28;19960;-52
2022/05/14 04:48:52;;;;;;;;;;;;;;;20.47;57.91;99064.19;2073354;28;19933;-51
2022/05/14 04:49:53;;;;;;;;;;;;;;;20.45;57.71;99064.41;2070822;28;21172;-49
2022/05/14 04:50:56;;;;;;;;;;;;;;;20.46;57.46;99065.25;2069947;28;20020;-52
2022/05/14 04:51:57;;;;;;;;;;;;;;;20.47;57.44;99061.50;2072943;28;20019;-48
2022/05/14 04:52:59;;;;;;;;;;;;;;;20.49;57.81;99056.75;2073707;28;19936;-49
2022/05/14 04:53:59;;;;;;;;;;;;;;;20.48;57.74;99074.78;2076209;28;19965;-47
2022/05/14 04:55:01;;;;;;;;;;;;;;;20.47;57.64;99062.31;2072852;28;19929;-54
2022/05/14 04:56:02;;;;;;;;;;;;;;;20.50;57.72;99072.72;2075525;28;20275;-53
2022/05/14 04:57:04;;;;;;;;;;;;;;;20.49;57.69;99076.44;2074701;28;19929;-49
2022/05/14 04:58:07;;;;;;;;;;;;;;;20.46;57.71;99071.47;2072285;28;20586;-48
2022/05/14 04:59:08;;;;;;;;;;;;;;;20.48;57.78;99073.97;2075590;28;19933;-48
2022/05/14 05:00:11;;;;;;;;;;;;;;;20.46;57.64;99070.63;2074704;28;20040;-49
2022/05/14 05:01:12;;;;;;;;;;;;;;;20.44;57.64;99076.22;2075494;28;20015;-50
2022/05/14 05:03:34;;;;;;;;;;;;;;;20.46;57.72;99081.41;2072663;28;19933;-52
2022/05/14 05:04:34;;;;;;;;;;;;;;;20.47;57.60;99077.66;2076981;28;19940;-50
2022/05/14 05:05:37;;;;;;;;;;;;;;;20.44;57.73;99076.22;2078153;28;19931;-53
2022/05/14 05:06:38;;;;;;;;;;;;;;;20.43;57.57;99071.88;2074334;28;19933;-51
2022/05/14 05:07:39;;;;;;;;;;;;;;;20.43;57.74;99073.75;2075637;28;19929;-49
2022/05/14 05:08:42;;;;;;;;;;;;;;;20.44;57.76;99075.38;2076383;28;19929;-52
2022/05/14 05:09:43;;;;;;;;;;;;;;;20.43;57.89;99071.03;2073535;28;19929;-53
2022/05/14 05:10:45;;;;;;;;;;;;;;;20.44;57.57;99075.38;2077412;28;19953;-48
2022/05/14 05:11:45;;;;;;;;;;;;;;;20.43;57.59;99081.81;2074953;28;19968;-48
2022/05/14 05:12:47;;;;;;;;;;;;;;;20.43;57.71;99081.81;2076635;28;19932;-47
2022/05/14 05:13:49;;;;;;;;;;;;;;;20.40;57.74;99083.06;2074291;28;19929;-50
2022/05/14 05:14:50;;;;;;;;;;;;;;;20.41;58.01;99084.72;2067356;28;20379;-51
2022/05/14 05:15:52;;;;;;;;;;;;;;;20.41;57.88;99086.56;2071960;28;19968;-56
2022/05/14 05:16:53;;;;;;;;;;;;;;;20.41;57.89;99084.72;2072125;28;19932;-54
2022/05/14 05:17:56;;;;;;;;;;;;;;;20.43;57.67;99084.50;2071418;28;20020;-55
2022/05/14 05:18:57;;;;;;;;;;;;;;;20.43;57.90;99087.22;2072328;28;20379;-47
2022/05/14 05:19:58;;;;;;;;;;;;;;;20.42;57.56;99086.38;2074006;28;20079;-56
2022/05/14 05:21:00;;;;;;;;;;;;;;;20.41;57.57;99081.19;2074356;28;19952;-51
2022/05/14 05:22:00;;;;;;;;;;;;;;;20.41;57.90;99078.50;2073344;28;20032;-49
2022/05/14 05:23:02;;;;;;;;;;;;;;;20.40;57.67;99087.63;2077027;28;20422;-48
2022/05/14 05:24:05;;;;;;;;;;;;;;;20.43;57.70;99089.91;2076322;28;19986;-49
2022/05/14 05:25:08;;;;;;;;;;;;;;;20.41;57.85;99079.31;2074097;28;19925;-51
2022/05/14 05:26:10;;;;;;;;;;;;;;;20.41;57.67;99091.97;2077486;28;19929;-48
2022/05/14 05:27:10;;;;;;;;;;;;;;;20.40;57.64;99093.00;2074973;28;19940;-49
2022/05/14 05:28:12;;;;;;;;;;;;;;;20.38;57.78;99087.81;2077530;28;19939;-48
2022/05/14 05:29:13;;;;;;;;;;;;;;;20.39;57.97;99088.63;2075730;28;19929;-51
2022/05/14 05:30:14;;;;;;;;;;;;;;;20.39;57.62;99088.63;2075359;28;19929;-49
2022/05/14 05:31:17;;;;;;;;;;;;;;;20.41;57.90;99089.28;2076486;28;20287;-50
2022/05/14 05:32:18;;;;;;;;;;;;;;;20.41;58.02;99089.28;2072974;28;19978;-47